Time;durP1;ratioP1;P1;durP2;ratioP2;P2;SDS_P1;SDS_P2;PMS_P1;PMS_P2;Temp;Humidity;BMP_temperature;BMP_pressure;BME280_temperature;BME280_humidity;BME280_pressure;Samples;Min_cycle;Max_cycle;Signal;HPM_P1;HPM_P2
2021/12/17 00:04:31;;;;;;;;;;;22.20;51.10;;;;;;5041319;28;19976;-67
2021/12/17 00:06:56;;;;;;;;;;;22.20;51.10;;;;;;5041284;28;19908;-66
2021/12/17 00:09:22;;;;;;;;;;;22.20;51.10;;;;;;5043298;28;20333;-66
2021/12/17 00:11:48;;;;;;;;;;;22.20;51.10;;;;;;5044583;28;19921;-65
2021/12/17 00:14:22;;;;;;;;;;;22.20;51.10;;;;;;5044254;28;19912;-68
2021/12/17 00:16:48;;;;;;;;;;;22.10;51.10;;;;;;5044020;28;19904;-65
2021/12/17 00:20:12;;;;;;;;;;;22.10;51.10;;;;;;5042352;28;19908;-66
2021/12/17 00:49:18;;;;;;;;;;;21.90;51.30;;;;;;5037982;28;19928;-67
2021/12/17 00:54:19;;;;;;;;;;;21.90;51.30;;;;;;5043118;28;19974;-65
2021/12/17 00:56:49;;;;;;;;;;;21.90;51.30;;;;;;5044156;28;19978;-66
2021/12/17 00:59:15;;;;;;;;;;;21.90;51.40;;;;;;5043687;28;19920;-66
2021/12/17 01:01:41;;;;;;;;;;;21.80;51.30;;;;;;5040353;28;19921;-66
2021/12/17 01:04:06;;;;;;;;;;;21.80;51.30;;;;;;5043044;28;20349;-69
2021/12/17 01:06:32;;;;;;;;;;;21.80;51.90;;;;;;5037290;28;19944;-66
2021/12/17 01:08:57;;;;;;;;;;;21.80;51.40;;;;;;5042487;28;19909;-68
2021/12/17 01:11:23;;;;;;;;;;;21.80;51.40;;;;;;5039854;28;20000;-64
2021/12/17 01:13:49;;;;;;;;;;;21.80;51.50;;;;;;5042851;28;19912;-65
2021/12/17 01:16:15;;;;;;;;;;;21.80;51.50;;;;;;5042426;28;19920;-65
2021/12/17 01:42:23;;;;;;;;;;;21.60;51.60;;;;;;5042244;28;20490;-65
2021/12/17 01:44:49;;;;;;;;;;;21.60;51.60;;;;;;5041792;28;19939;-65
2021/12/17 01:47:15;;;;;;;;;;;21.60;51.60;;;;;;5044789;28;19999;-64
2021/12/17 02:00:43;;;;;;;;;;;21.50;51.70;;;;;;5039984;28;20062;-67
2021/12/17 02:03:09;;;;;;;;;;;21.50;51.70;;;;;;5047491;28;19913;-64
2021/12/17 02:05:35;;;;;;;;;;;21.50;51.70;;;;;;5045351;28;19912;-67
2021/12/17 02:08:01;;;;;;;;;;;21.50;51.80;;;;;;5047316;28;19913;-64
2021/12/17 02:10:49;;;;;;;;;;;21.40;51.70;;;;;;5045656;28;19912;-65
2021/12/17 02:31:59;;;;;;;;;;;21.30;51.90;;;;;;5044888;28;19920;-67
2021/12/17 02:37:13;;;;;;;;;;;21.30;51.90;;;;;;5042107;28;19919;-67
2021/12/17 02:48:13;;;;;;;;;;;21.30;52.00;;;;;;5044940;28;19923;-65
2021/12/17 02:50:43;;;;;;;;;;;21.20;52.00;;;;;;5041117;28;19917;-65
2021/12/17 02:53:08;;;;;;;;;;;21.20;52.00;;;;;;5045437;28;19916;-65
2021/12/17 02:55:41;;;;;;;;;;;21.20;52.00;;;;;;5045239;28;20376;-65
2021/12/17 02:58:07;;;;;;;;;;;21.20;52.00;;;;;;5041254;28;20264;-65
2021/12/17 03:00:33;;;;;;;;;;;21.20;52.00;;;;;;5041908;28;20273;-67
2021/12/17 03:03:01;;;;;;;;;;;21.20;52.00;;;;;;5045226;28;19935;-67
2021/12/17 03:05:27;;;;;;;;;;;21.20;52.00;;;;;;5042282;28;19916;-64
2021/12/17 03:07:57;;;;;;;;;;;21.20;52.10;;;;;;5044982;28;19908;-66
2021/12/17 03:10:23;;;;;;;;;;;21.20;52.10;;;;;;5043108;28;19919;-64
2021/12/17 03:12:52;;;;;;;;;;;21.10;52.10;;;;;;5045454;28;19983;-67
2021/12/17 03:25:44;;;;;;;;;;;21.10;52.10;;;;;;5044594;28;19962;-65
2021/12/17 03:28:10;;;;;;;;;;;21.10;52.20;;;;;;5042495;28;19916;-67
2021/12/17 03:30:36;;;;;;;;;;;21.10;52.20;;;;;;5042743;28;20055;-65
2021/12/17 03:33:02;;;;;;;;;;;21.00;52.10;;;;;;5045740;28;20003;-67
2021/12/17 03:35:27;;;;;;;;;;;21.00;52.20;;;;;;5042248;28;20683;-64
2021/12/17 03:37:53;;;;;;;;;;;21.00;52.20;;;;;;5043910;28;20375;-64
2021/12/17 03:40:20;;;;;;;;;;;21.00;52.20;;;;;;5042716;28;20011;-65
2021/12/17 03:42:50;;;;;;;;;;;21.00;52.20;;;;;;5045291;28;20031;-65
2021/12/17 03:45:17;;;;;;;;;;;21.00;52.80;;;;;;5044644;28;20395;-65
2021/12/17 03:47:43;;;;;;;;;;;21.00;52.20;;;;;;5044711;28;19916;-65
2021/12/17 03:50:08;;;;;;;;;;;21.00;52.30;;;;;;5042383;28;20283;-67
2021/12/17 03:52:34;;;;;;;;;;;21.00;52.30;;;;;;5045160;28;19925;-65
2021/12/17 03:55:00;;;;;;;;;;;21.00;52.30;;;;;;5044738;28;19990;-67
2021/12/17 03:57:25;;;;;;;;;;;21.00;52.30;;;;;;5045795;28;19916;-65
2021/12/17 03:59:51;;;;;;;;;;;20.90;52.20;;;;;;5037743;28;19930;-67
2021/12/17 04:02:17;;;;;;;;;;;20.90;52.20;;;;;;5040232;28;19969;-65
2021/12/17 04:04:43;;;;;;;;;;;20.90;52.20;;;;;;5044277;28;19917;-67
2021/12/17 04:07:08;;;;;;;;;;;20.90;52.20;;;;;;5039651;28;19936;-66
2021/12/17 04:09:34;;;;;;;;;;;20.90;52.20;;;;;;5044163;28;20799;-66
2021/12/17 04:12:05;;;;;;;;;;;20.90;52.20;;;;;;5043870;28;19970;-67
2021/12/17 04:14:42;;;;;;;;;;;20.90;52.20;;;;;;5041446;28;19909;-65
2021/12/17 04:17:08;;;;;;;;;;;20.90;52.20;;;;;;5044019;28;19920;-64
2021/12/17 04:19:34;;;;;;;;;;;20.90;52.20;;;;;;5043580;28;19942;-65
2021/12/17 04:21:59;;;;;;;;;;;20.90;52.30;;;;;;5042345;28;19939;-67
2021/12/17 04:24:25;;;;;;;;;;;20.90;52.30;;;;;;5045925;28;19995;-65
2021/12/17 04:26:51;;;;;;;;;;;20.90;52.30;;;;;;5042838;28;19908;-67
2021/12/17 04:29:17;;;;;;;;;;;20.90;52.30;;;;;;5043621;28;19909;-66
2021/12/17 04:31:43;;;;;;;;;;;20.90;52.30;;;;;;5038774;28;20241;-65
2021/12/17 04:34:11;;;;;;;;;;;20.90;52.40;;;;;;5042261;28;19909;-65
2021/12/17 04:36:37;;;;;;;;;;;20.90;52.30;;;;;;5036813;28;19954;-65
2021/12/17 04:39:06;;;;;;;;;;;20.90;52.30;;;;;;5040374;28;19991;-65
2021/12/17 04:46:56;;;;;;;;;;;20.80;52.30;;;;;;5038945;28;19919;-65
2021/12/17 04:57:37;;;;;;;;;;;20.80;52.30;;;;;;5043828;28;19935;-65
2021/12/17 05:00:14;;;;;;;;;;;20.80;52.30;;;;;;5039330;28;19912;-64
2021/12/17 05:02:46;;;;;;;;;;;20.80;52.30;;;;;;5037380;28;20059;-65
2021/12/17 05:05:12;;;;;;;;;;;20.80;52.30;;;;;;5041119;28;19962;-64
2021/12/17 05:07:41;;;;;;;;;;;20.80;52.30;;;;;;5042768;28;19935;-67
2021/12/17 05:18:22;;;;;;;;;;;20.80;52.30;;;;;;5043574;28;20257;-64
2021/12/17 05:20:50;;;;;;;;;;;20.80;52.30;;;;;;5041267;28;19921;-63
2021/12/17 05:23:19;;;;;;;;;;;20.80;52.30;;;;;;5045102;28;19919;-65
2021/12/17 05:25:44;;;;;;;;;;;20.70;52.30;;;;;;5046762;28;20058;-66
2021/12/17 05:28:10;;;;;;;;;;;20.70;52.30;;;;;;5045958;28;19926;-64
2021/12/17 05:30:36;;;;;;;;;;;20.70;52.30;;;;;;5042245;28;19959;-64
2021/12/17 05:33:01;;;;;;;;;;;20.70;52.30;;;;;;5047185;28;19912;-65
2021/12/17 05:35:27;;;;;;;;;;;20.70;52.30;;;;;;5044865;28;19916;-64
2021/12/17 05:37:54;;;;;;;;;;;20.70;52.30;;;;;;5046732;28;19913;-64
2021/12/17 05:40:20;;;;;;;;;;;20.70;52.30;;;;;;5040768;28;20265;-65
2021/12/17 05:42:48;;;;;;;;;;;20.70;52.60;;;;;;5046592;28;20008;-66
2021/12/17 05:45:34;;;;;;;;;;;20.70;52.40;;;;;;5042082;28;19981;-63
2021/12/17 05:48:03;;;;;;;;;;;20.70;52.30;;;;;;5044188;28;19909;-64
2021/12/17 05:50:29;;;;;;;;;;;20.70;52.40;;;;;;5043365;28;19963;-67
2021/12/17 05:52:54;;;;;;;;;;;20.70;52.40;;;;;;5041492;28;19913;-63
2021/12/17 05:55:20;;;;;;;;;;;20.70;52.40;;;;;;5045662;28;20319;-67
2021/12/17 05:57:45;;;;;;;;;;;20.70;52.40;;;;;;5042112;28;19912;-65
2021/12/17 06:00:11;;;;;;;;;;;20.70;52.40;;;;;;5047628;28;19992;-63
2021/12/17 06:02:37;;;;;;;;;;;20.70;52.40;;;;;;5044276;28;20579;-65
2021/12/17 06:05:02;;;;;;;;;;;20.70;52.40;;;;;;5039298;28;20531;-67
2021/12/17 06:07:29;;;;;;;;;;;20.70;52.40;;;;;;5041487;28;19913;-64
2021/12/17 06:09:57;;;;;;;;;;;20.70;52.40;;;;;;5040202;28;19915;-66
2021/12/17 06:12:23;;;;;;;;;;;20.70;52.40;;;;;;5048351;28;19916;-63
2021/12/17 06:14:48;;;;;;;;;;;20.70;53.40;;;;;;5046117;28;19909;-65
2021/12/17 06:17:14;;;;;;;;;;;20.90;53.90;;;;;;5053843;28;20003;-66
2021/12/17 06:19:39;;;;;;;;;;;21.10;53.70;;;;;;5048722;28;19972;-66
2021/12/17 06:22:05;;;;;;;;;;;21.30;53.50;;;;;;5056129;28;19912;-66
2021/12/17 06:24:30;;;;;;;;;;;21.50;53.30;;;;;;5059838;28;19917;-66
2021/12/17 06:26:56;;;;;;;;;;;21.60;53.10;;;;;;5058019;28;20126;-66
2021/12/17 06:29:21;;;;;;;;;;;21.80;53.00;;;;;;5054168;28;19924;-65
2021/12/17 06:31:47;;;;;;;;;;;22.00;52.90;;;;;;5055828;28;19928;-66
2021/12/17 06:34:12;;;;;;;;;;;22.10;52.90;;;;;;5050128;28;19924;-67
2021/12/17 06:36:38;;;;;;;;;;;22.20;52.60;;;;;;5053052;28;19909;-66
2021/12/17 06:39:03;;;;;;;;;;;22.40;52.60;;;;;;5055473;28;19959;-66
2021/12/17 06:41:29;;;;;;;;;;;22.60;52.40;;;;;;5059726;28;20440;-65
2021/12/17 06:43:57;;;;;;;;;;;22.70;52.20;;;;;;5054277;28;20015;-64
2021/12/17 06:46:45;;;;;;;;;;;22.90;52.00;;;;;;5055402;28;19988;-67
2021/12/17 06:49:46;;;;;;;;;;;23.10;51.80;;;;;;5056118;28;19913;-65
2021/12/17 07:06:09;;;;;;;;;;;24.10;50.50;;;;;;5047917;28;19920;-65
2021/12/17 07:10:46;;;;;;;;;;;24.60;49.50;;;;;;5054690;28;19912;-66
2021/12/17 07:19:28;;;;;;;;;;;25.20;48.70;;;;;;5052747;28;19916;-67
2021/12/17 07:39:42;;;;;;;;;;;24.50;50.40;;;;;;5039267;28;20674;-66
2021/12/17 07:42:08;;;;;;;;;;;24.50;50.80;;;;;;5043560;28;19924;-66
2021/12/17 07:44:33;;;;;;;;;;;24.40;50.70;;;;;;5043435;28;19962;-67
2021/12/17 07:46:59;;;;;;;;;;;24.40;50.90;;;;;;5035754;28;19909;-64
2021/12/17 07:49:24;;;;;;;;;;;24.40;51.20;;;;;;5036889;28;19917;-64
2021/12/17 07:51:50;;;;;;;;;;;24.40;51.60;;;;;;5039313;28;20492;-66
2021/12/17 07:54:15;;;;;;;;;;;24.40;51.60;;;;;;5046800;28;19913;-65
2021/12/17 07:56:41;;;;;;;;;;;24.40;51.20;;;;;;5045601;28;19913;-64
2021/12/17 07:59:08;;;;;;;;;;;24.40;51.60;;;;;;5044321;28;21722;-66
2021/12/17 08:01:35;;;;;;;;;;;24.50;51.80;;;;;;5042209;28;19952;-66
2021/12/17 08:04:01;;;;;;;;;;;24.50;51.80;;;;;;5043783;28;19924;-64
2021/12/17 08:06:26;;;;;;;;;;;24.50;51.50;;;;;;5039854;28;19912;-65
2021/12/17 08:08:52;;;;;;;;;;;24.40;51.50;;;;;;5044429;28;19913;-67
2021/12/17 08:11:18;;;;;;;;;;;24.40;51.40;;;;;;5043054;28;19913;-64
2021/12/17 08:13:45;;;;;;;;;;;24.40;51.00;;;;;;5046424;28;19912;-65
2021/12/17 08:31:59;;;;;;;;;;;24.10;44.80;;;;;;5039562;28;19951;-66
2021/12/17 08:34:25;;;;;;;;;;;24.00;43.20;;;;;;5041791;28;19917;-67
2021/12/17 08:36:50;;;;;;;;;;;24.00;42.80;;;;;;5039890;28;19927;-63
2021/12/17 08:39:16;;;;;;;;;;;23.90;41.60;;;;;;5042501;28;19915;-65
2021/12/17 08:41:42;;;;;;;;;;;23.90;40.60;;;;;;5041474;28;19916;-65
2021/12/17 08:44:08;;;;;;;;;;;23.90;40.20;;;;;;5039096;28;19917;-63
2021/12/17 08:46:34;;;;;;;;;;;23.80;39.00;;;;;;5041000;28;19967;-66
2021/12/17 08:49:00;;;;;;;;;;;23.80;39.10;;;;;;5039720;28;20079;-65
2021/12/17 08:51:25;;;;;;;;;;;23.70;39.60;;;;;;5041765;28;19921;-65
2021/12/17 08:53:51;;;;;;;;;;;23.70;40.80;;;;;;5039875;28;19916;-65
2021/12/17 08:56:22;;;;;;;;;;;23.70;41.70;;;;;;5040886;28;19959;-64
2021/12/17 08:58:50;;;;;;;;;;;23.70;42.60;;;;;;5042911;28;19912;-63
2021/12/17 09:01:15;;;;;;;;;;;23.70;43.30;;;;;;5033580;28;19930;-66
2021/12/17 09:03:41;;;;;;;;;;;23.70;43.90;;;;;;5043745;28;19908;-64
2021/12/17 09:06:06;;;;;;;;;;;23.70;44.40;;;;;;5041414;28;20605;-66
2021/12/17 09:08:32;;;;;;;;;;;23.70;44.70;;;;;;5043907;28;19915;-63
2021/12/17 09:10:58;;;;;;;;;;;23.60;44.90;;;;;;5042730;28;19904;-65
2021/12/17 09:13:25;;;;;;;;;;;23.60;45.00;;;;;;5043947;28;20543;-65
2021/12/17 09:15:55;;;;;;;;;;;23.60;45.10;;;;;;5043206;28;19913;-65
2021/12/17 09:18:20;;;;;;;;;;;23.50;45.30;;;;;;5042089;28;19999;-65
2021/12/17 09:20:46;;;;;;;;;;;23.50;45.50;;;;;;5042061;28;20007;-66
2021/12/17 09:23:12;;;;;;;;;;;23.50;45.70;;;;;;5042285;28;19916;-66
2021/12/17 09:25:38;;;;;;;;;;;23.50;45.80;;;;;;5040797;28;19939;-67
2021/12/17 09:28:04;;;;;;;;;;;23.50;45.90;;;;;;5038097;28;19909;-66
2021/12/17 09:30:29;;;;;;;;;;;23.40;46.00;;;;;;5044073;28;19912;-67
2021/12/17 09:32:55;;;;;;;;;;;23.50;46.10;;;;;;5036985;28;20354;-67
2021/12/17 09:35:21;;;;;;;;;;;23.40;46.20;;;;;;5041040;28;19917;-67
2021/12/17 09:37:46;;;;;;;;;;;23.40;46.20;;;;;;5041876;28;19958;-65
2021/12/17 09:40:12;;;;;;;;;;;23.40;46.30;;;;;;5039819;28;19913;-66
2021/12/17 09:42:39;;;;;;;;;;;23.40;46.40;;;;;;5038524;28;19967;-66
2021/12/17 09:45:05;;;;;;;;;;;23.40;46.40;;;;;;5041660;28;19979;-66
2021/12/17 09:47:31;;;;;;;;;;;23.40;46.50;;;;;;5044148;28;20361;-65
2021/12/17 09:49:57;;;;;;;;;;;23.40;46.60;;;;;;5042226;28;19916;-66
2021/12/17 09:52:24;;;;;;;;;;;23.40;46.60;;;;;;5035096;28;20410;-65
2021/12/17 09:54:49;;;;;;;;;;;23.40;46.70;;;;;;5041149;28;19959;-64
2021/12/17 09:57:17;;;;;;;;;;;23.30;46.70;;;;;;5039503;28;19917;-65
2021/12/17 09:59:43;;;;;;;;;;;23.30;47.10;;;;;;5039587;28;19913;-65
2021/12/17 10:02:08;;;;;;;;;;;23.30;46.90;;;;;;5040731;28;19974;-67
2021/12/17 10:04:34;;;;;;;;;;;23.30;46.90;;;;;;5043288;28;19915;-65
2021/12/17 10:07:18;;;;;;;;;;;23.30;46.90;;;;;;5041867;28;20003;-67
2021/12/17 10:09:54;;;;;;;;;;;23.30;46.90;;;;;;5044955;28;19909;-68
2021/12/17 10:12:24;;;;;;;;;;;23.30;47.00;;;;;;5045977;28;19932;-68
2021/12/17 10:15:06;;;;;;;;;;;23.30;47.10;;;;;;5046734;28;21021;-67
2021/12/17 10:17:32;;;;;;;;;;;23.30;47.30;;;;;;5042130;28;20037;-65
2021/12/17 10:19:58;;;;;;;;;;;23.20;47.20;;;;;;5040829;28;20066;-65
2021/12/17 10:22:25;;;;;;;;;;;23.20;47.20;;;;;;5042175;28;19975;-66
2021/12/17 10:24:59;;;;;;;;;;;23.20;47.30;;;;;;5043823;28;20008;-66
2021/12/17 10:27:27;;;;;;;;;;;23.20;47.40;;;;;;5041075;28;20007;-67
2021/12/17 10:29:52;;;;;;;;;;;23.20;47.40;;;;;;5045689;28;19920;-64
2021/12/17 10:32:19;;;;;;;;;;;23.20;47.40;;;;;;5045413;28;20250;-65
2021/12/17 10:35:02;;;;;;;;;;;23.20;47.50;;;;;;5044870;28;19913;-65
2021/12/17 10:37:31;;;;;;;;;;;23.20;47.50;;;;;;5043311;28;19974;-63
2021/12/17 10:39:57;;;;;;;;;;;23.20;47.50;;;;;;5044755;28;19912;-67
2021/12/17 10:42:29;;;;;;;;;;;23.20;47.50;;;;;;5044010;28;20332;-67
2021/12/17 10:45:05;;;;;;;;;;;23.20;47.70;;;;;;5046395;28;19916;-67
2021/12/17 10:47:34;;;;;;;;;;;23.20;47.70;;;;;;5041043;28;20325;-68
2021/12/17 10:50:02;;;;;;;;;;;23.20;47.70;;;;;;5037299;28;20295;-68
2021/12/17 10:52:36;;;;;;;;;;;23.20;47.80;;;;;;5042924;28;20191;-66
2021/12/17 10:55:08;;;;;;;;;;;23.10;47.70;;;;;;5042392;28;19991;-67
2021/12/17 10:57:34;;;;;;;;;;;23.10;44.90;;;;;;5045268;28;19920;-66
2021/12/17 11:00:00;;;;;;;;;;;22.90;38.20;;;;;;5034530;28;19912;-65
2021/12/17 11:02:29;;;;;;;;;;;22.70;38.60;;;;;;5042145;28;19920;-67
2021/12/17 11:04:56;;;;;;;;;;;22.60;40.40;;;;;;5042397;28;19919;-67
2021/12/17 11:07:22;;;;;;;;;;;22.60;40.90;;;;;;5041860;28;19913;-65
2021/12/17 11:09:55;;;;;;;;;;;22.60;41.70;;;;;;5044314;28;19935;-65
2021/12/17 11:12:27;;;;;;;;;;;22.60;42.00;;;;;;5041759;28;19909;-68
2021/12/17 11:14:53;;;;;;;;;;;22.70;42.50;;;;;;5041385;28;20435;-67
2021/12/17 11:17:21;;;;;;;;;;;22.70;42.90;;;;;;5036790;28;20014;-67
2021/12/17 11:19:47;;;;;;;;;;;22.70;43.20;;;;;;5043775;28;19917;-65
2021/12/17 11:22:12;;;;;;;;;;;22.70;43.70;;;;;;5039670;28;19920;-68
2021/12/17 11:24:37;;;;;;;;;;;22.70;44.00;;;;;;5045707;28;20015;-65
2021/12/17 11:27:04;;;;;;;;;;;22.70;44.00;;;;;;5038814;28;19909;-66
2021/12/17 11:29:29;;;;;;;;;;;22.70;44.00;;;;;;5039293;28;19927;-66
2021/12/17 11:31:55;;;;;;;;;;;22.70;44.10;;;;;;5037086;28;20391;-68
2021/12/17 11:34:20;;;;;;;;;;;22.70;44.40;;;;;;5041132;28;20187;-65
2021/12/17 11:36:46;;;;;;;;;;;22.80;44.60;;;;;;5039005;28;20770;-66
2021/12/17 11:39:24;;;;;;;;;;;22.80;44.70;;;;;;5043108;28;20149;-66
2021/12/17 11:42:16;;;;;;;;;;;22.80;44.80;;;;;;5042681;28;19967;-66
2021/12/17 11:44:51;;;;;;;;;;;22.80;44.90;;;;;;5044739;28;19912;-65
2021/12/17 11:47:16;;;;;;;;;;;22.80;45.20;;;;;;5046147;28;20272;-67
2021/12/17 11:49:50;;;;;;;;;;;22.80;45.50;;;;;;5043946;28;19921;-66
2021/12/17 11:52:35;;;;;;;;;;;22.80;45.50;;;;;;5039835;28;19917;-68
2021/12/17 11:55:20;;;;;;;;;;;22.80;45.60;;;;;;5035180;28;19912;-68
2021/12/17 11:57:45;;;;;;;;;;;22.80;45.80;;;;;;5045526;28;20015;-68
2021/12/17 12:00:15;;;;;;;;;;;22.80;45.90;;;;;;5047873;28;19986;-67
2021/12/17 12:02:48;;;;;;;;;;;22.80;45.80;;;;;;5034464;28;19913;-64
2021/12/17 12:05:32;;;;;;;;;;;22.70;46.00;;;;;;5037575;28;20395;-68
2021/12/17 12:08:17;;;;;;;;;;;22.70;46.10;;;;;;5037502;28;19921;-66
2021/12/17 12:10:44;;;;;;;;;;;22.70;46.10;;;;;;5038867;28;20368;-64
2021/12/17 12:13:09;;;;;;;;;;;22.70;46.20;;;;;;5035375;28;19984;-68
2021/12/17 12:15:37;;;;;;;;;;;22.60;46.30;;;;;;5039335;28;20024;-66
2021/12/17 12:18:03;;;;;;;;;;;22.70;46.40;;;;;;5042696;28;19913;-68
2021/12/17 12:20:38;;;;;;;;;;;22.60;46.40;;;;;;5037303;28;19927;-66
2021/12/17 12:23:12;;;;;;;;;;;22.60;46.50;;;;;;5044572;28;19908;-64
2021/12/17 12:25:38;;;;;;;;;;;22.60;46.50;;;;;;5037614;28;19919;-68
2021/12/17 12:28:04;;;;;;;;;;;22.60;46.60;;;;;;5042343;28;20891;-66
2021/12/17 12:30:36;;;;;;;;;;;22.60;46.60;;;;;;5038081;28;19952;-67
2021/12/17 12:33:08;;;;;;;;;;;22.60;46.70;;;;;;5039508;28;20431;-64
2021/12/17 12:35:34;;;;;;;;;;;22.60;46.70;;;;;;5041138;28;20031;-67
2021/12/17 12:38:15;;;;;;;;;;;22.50;46.70;;;;;;5044316;28;19916;-64
2021/12/17 12:40:45;;;;;;;;;;;22.50;46.80;;;;;;5041376;28;19921;-65
2021/12/17 12:43:24;;;;;;;;;;;22.50;46.80;;;;;;5041047;28;19922;-68
2021/12/17 12:45:50;;;;;;;;;;;22.50;46.90;;;;;;5038678;28;19957;-65
2021/12/17 12:48:38;;;;;;;;;;;22.50;47.00;;;;;;5040389;28;19978;-64
2021/12/17 12:51:16;;;;;;;;;;;22.50;47.10;;;;;;5034806;28;19909;-67
2021/12/17 12:53:46;;;;;;;;;;;22.40;47.10;;;;;;5039202;28;19920;-68
2021/12/17 12:56:19;;;;;;;;;;;22.40;47.20;;;;;;5041360;28;19923;-66
2021/12/17 12:58:46;;;;;;;;;;;22.40;47.20;;;;;;5043311;28;21356;-66
2021/12/17 13:01:13;;;;;;;;;;;22.40;47.30;;;;;;5034120;28;19924;-65
2021/12/17 13:03:39;;;;;;;;;;;22.40;47.30;;;;;;5037240;28;19980;-64
2021/12/17 13:06:06;;;;;;;;;;;22.40;47.40;;;;;;5033807;28;19916;-65
2021/12/17 13:08:32;;;;;;;;;;;22.40;47.50;;;;;;5038780;28;19916;-67
2021/12/17 13:10:59;;;;;;;;;;;22.30;47.40;;;;;;5038573;28;20293;-67
2021/12/17 13:16:07;;;;;;;;;;;22.30;47.60;;;;;;5036502;28;19959;-67
2021/12/17 13:23:57;;;;;;;;;;;22.30;47.80;;;;;;5032012;28;19927;-67
2021/12/17 13:26:25;;;;;;;;;;;22.30;47.80;;;;;;5037222;28;19917;-67
2021/12/17 13:28:52;;;;;;;;;;;22.30;47.80;;;;;;5032534;28;19943;-64
2021/12/17 13:31:36;;;;;;;;;;;22.30;47.80;;;;;;5032828;28;19959;-66
2021/12/17 13:34:06;;;;;;;;;;;22.30;47.90;;;;;;5030797;28;19986;-67
2021/12/17 13:36:32;;;;;;;;;;;22.30;48.00;;;;;;5030663;28;19912;-67
2021/12/17 13:38:57;;;;;;;;;;;22.20;48.00;;;;;;5030921;28;19920;-64
2021/12/17 13:41:36;;;;;;;;;;;22.20;48.10;;;;;;5036397;28;19917;-66
2021/12/17 13:44:02;;;;;;;;;;;22.20;48.10;;;;;;5039241;28;19909;-63
2021/12/17 13:46:28;;;;;;;;;;;22.20;48.10;;;;;;5032545;28;20418;-66
2021/12/17 13:48:53;;;;;;;;;;;22.20;48.20;;;;;;5039829;28;19955;-64
2021/12/17 13:51:19;;;;;;;;;;;22.20;48.20;;;;;;5038586;28;20346;-66
2021/12/17 13:53:44;;;;;;;;;;;22.20;48.20;;;;;;5035611;28;19970;-66
2021/12/17 13:56:14;;;;;;;;;;;22.20;48.20;;;;;;5040187;28;19917;-65
2021/12/17 13:58:40;;;;;;;;;;;22.20;48.20;;;;;;5038657;28;19921;-67
2021/12/17 14:01:05;;;;;;;;;;;22.20;48.10;;;;;;5033817;28;19920;-67
2021/12/17 14:03:35;;;;;;;;;;;22.20;48.20;;;;;;5039767;28;19909;-65
2021/12/17 14:06:17;;;;;;;;;;;22.20;48.20;;;;;;5034571;28;19924;-65
2021/12/17 14:08:43;;;;;;;;;;;22.20;48.20;;;;;;5038008;28;19920;-64
2021/12/17 14:11:27;;;;;;;;;;;22.20;48.30;;;;;;5033293;28;19982;-67
2021/12/17 14:13:53;;;;;;;;;;;22.20;48.30;;;;;;5031903;28;19917;-66
2021/12/17 14:16:31;;;;;;;;;;;22.10;48.30;;;;;;5036142;28;20364;-65
2021/12/17 14:18:57;;;;;;;;;;;22.10;48.40;;;;;;5036203;28;19920;-67
2021/12/17 14:21:30;;;;;;;;;;;22.10;48.40;;;;;;5029709;28;19938;-64
2021/12/17 14:23:55;;;;;;;;;;;22.10;48.40;;;;;;5037820;28;19917;-66
2021/12/17 14:26:28;;;;;;;;;;;22.10;48.40;;;;;;5035534;28;20329;-66
2021/12/17 14:28:54;;;;;;;;;;;22.10;48.40;;;;;;5033144;28;20340;-64
2021/12/17 14:31:22;;;;;;;;;;;22.20;48.50;;;;;;5033364;28;20028;-66
2021/12/17 14:33:48;;;;;;;;;;;22.10;48.40;;;;;;5032819;28;20026;-66
2021/12/17 14:36:15;;;;;;;;;;;22.10;48.40;;;;;;5050224;28;19955;-65
2021/12/17 14:38:50;;;;;;;;;;;22.10;48.40;;;;;;5036859;28;20322;-66
2021/12/17 14:41:18;;;;;;;;;;;22.10;48.40;;;;;;5030568;28;20179;-66
2021/12/17 14:43:50;;;;;;;;;;;22.10;48.40;;;;;;5034772;28;20376;-67
2021/12/17 14:46:30;;;;;;;;;;;22.10;48.50;;;;;;5034773;28;19917;-66
2021/12/17 15:05:24;;;;;;;;;;;22.80;47.50;;;;;;5031780;28;20331;-67
2021/12/17 15:07:51;;;;;;;;;;;22.90;47.40;;;;;;5034372;28;19919;-67
2021/12/17 15:10:19;;;;;;;;;;;22.90;47.40;;;;;;5032256;28;20126;-66
2021/12/17 15:12:45;;;;;;;;;;;23.00;47.20;;;;;;5032665;28;19919;-67
2021/12/17 15:15:12;;;;;;;;;;;23.10;47.10;;;;;;5032529;28;19956;-64
2021/12/17 15:17:38;;;;;;;;;;;23.10;47.10;;;;;;5036129;28;19916;-66
2021/12/17 15:20:05;;;;;;;;;;;23.10;47.10;;;;;;5032339;28;20630;-67
2021/12/17 15:22:30;;;;;;;;;;;23.20;47.00;;;;;;5028667;28;20023;-67
2021/12/17 15:24:56;;;;;;;;;;;23.30;47.00;;;;;;5029602;28;19973;-70
2021/12/17 15:27:22;;;;;;;;;;;23.30;46.80;;;;;;5033230;28;19912;-65
2021/12/17 15:29:48;;;;;;;;;;;23.40;46.80;;;;;;5030164;28;19928;-66
2021/12/17 15:32:13;;;;;;;;;;;23.40;46.70;;;;;;5025790;28;19925;-66
2021/12/17 15:34:39;;;;;;;;;;;23.50;46.70;;;;;;5029116;28;20698;-64
2021/12/17 15:37:04;;;;;;;;;;;23.50;46.50;;;;;;5036739;28;20008;-66
2021/12/17 15:39:30;;;;;;;;;;;23.50;46.30;;;;;;5040538;28;19913;-66
2021/12/17 15:41:55;;;;;;;;;;;23.40;46.40;;;;;;5033824;28;19920;-67
2021/12/17 15:44:21;;;;;;;;;;;23.40;46.60;;;;;;5038705;28;19920;-66
2021/12/17 15:46:47;;;;;;;;;;;23.30;46.70;;;;;;5039862;28;20007;-66
2021/12/17 15:49:12;;;;;;;;;;;23.30;46.80;;;;;;5035965;28;19916;-64
2021/12/17 15:51:38;;;;;;;;;;;23.20;46.90;;;;;;5036557;28;19912;-66
2021/12/17 15:54:04;;;;;;;;;;;23.20;47.10;;;;;;5033980;28;19917;-67
2021/12/17 15:56:31;;;;;;;;;;;23.10;47.20;;;;;;5038967;28;19970;-67
2021/12/17 15:59:01;;;;;;;;;;;23.10;47.30;;;;;;5037079;28;20036;-66
2021/12/17 16:01:26;;;;;;;;;;;23.10;47.30;;;;;;5037971;28;20371;-67
2021/12/17 16:03:52;;;;;;;;;;;23.00;47.30;;;;;;5036530;28;19913;-66
2021/12/17 16:06:18;;;;;;;;;;;23.00;47.40;;;;;;5033882;28;19920;-67
2021/12/17 16:08:48;;;;;;;;;;;23.00;47.50;;;;;;5038632;28;19999;-67
2021/12/17 16:21:58;;;;;;;;;;;22.80;47.60;;;;;;5038712;28;19927;-66
2021/12/17 16:24:24;;;;;;;;;;;22.80;47.70;;;;;;5039117;28;19908;-67
2021/12/17 16:26:49;;;;;;;;;;;22.80;47.80;;;;;;5035449;28;19948;-67
2021/12/17 16:29:18;;;;;;;;;;;22.80;47.80;;;;;;5038751;28;20570;-67
2021/12/17 16:31:44;;;;;;;;;;;22.70;47.80;;;;;;5036925;28;19971;-67
2021/12/17 16:34:10;;;;;;;;;;;22.70;47.90;;;;;;5040109;28;20075;-66
2021/12/17 16:36:38;;;;;;;;;;;22.70;47.90;;;;;;5036339;28;19908;-65
2021/12/17 16:39:05;;;;;;;;;;;22.70;48.00;;;;;;5037130;28;19971;-68
2021/12/17 16:41:31;;;;;;;;;;;22.70;48.00;;;;;;5038824;28;19920;-66
2021/12/17 16:44:02;;;;;;;;;;;22.60;48.00;;;;;;5039721;28;19917;-67
2021/12/17 16:49:03;;;;;;;;;;;22.60;48.10;;;;;;5028653;28;19920;-66
2021/12/17 16:51:29;;;;;;;;;;;22.60;48.10;;;;;;5037252;28;19923;-65
2021/12/17 16:53:55;;;;;;;;;;;22.60;48.10;;;;;;5038415;28;19909;-65
2021/12/17 16:56:21;;;;;;;;;;;22.60;48.20;;;;;;5038981;28;20101;-67
2021/12/17 16:58:46;;;;;;;;;;;22.60;48.20;;;;;;5040193;28;19995;-65
2021/12/17 17:01:12;;;;;;;;;;;22.50;48.20;;;;;;5036205;28;20538;-65
2021/12/17 17:03:37;;;;;;;;;;;22.50;48.20;;;;;;5037573;28;20546;-67
2021/12/17 17:06:03;;;;;;;;;;;22.50;48.20;;;;;;5037165;28;20012;-66
2021/12/17 17:08:31;;;;;;;;;;;22.50;48.20;;;;;;5037858;28;19916;-65
2021/12/17 17:11:01;;;;;;;;;;;22.50;48.20;;;;;;5037518;28;19917;-66
2021/12/17 17:13:26;;;;;;;;;;;22.50;48.20;;;;;;5039744;28;19969;-67
2021/12/17 17:15:52;;;;;;;;;;;22.50;48.20;;;;;;5040398;28;20597;-65
2021/12/17 17:18:18;;;;;;;;;;;22.40;48.20;;;;;;5045238;28;19912;-67
2021/12/17 17:20:44;;;;;;;;;;;22.40;48.30;;;;;;5038589;28;19916;-66
2021/12/17 17:23:10;;;;;;;;;;;22.40;48.30;;;;;;5042884;28;19912;-67
2021/12/17 17:25:35;;;;;;;;;;;22.40;48.30;;;;;;5042305;28;19967;-67
2021/12/17 17:28:05;;;;;;;;;;;22.40;48.40;;;;;;5043841;28;19966;-65
2021/12/17 17:30:31;;;;;;;;;;;22.40;48.40;;;;;;5041624;28;20323;-67
2021/12/17 17:32:56;;;;;;;;;;;22.30;48.40;;;;;;5041502;28;20006;-65
2021/12/17 17:35:21;;;;;;;;;;;22.30;48.40;;;;;;5038356;28;19920;-66
2021/12/17 17:37:47;;;;;;;;;;;22.30;48.40;;;;;;5038369;28;19909;-67
2021/12/17 17:40:13;;;;;;;;;;;22.30;48.50;;;;;;5037664;28;19916;-66
2021/12/17 17:42:38;;;;;;;;;;;22.30;48.50;;;;;;5038227;28;19912;-65
2021/12/17 17:45:05;;;;;;;;;;;22.30;48.50;;;;;;5032754;28;19909;-66
2021/12/17 17:47:31;;;;;;;;;;;22.20;48.50;;;;;;5039473;28;20001;-66
2021/12/17 17:49:56;;;;;;;;;;;22.30;48.60;;;;;;5039808;28;20714;-67
2021/12/17 17:52:22;;;;;;;;;;;22.20;48.60;;;;;;5038070;28;19917;-64
2021/12/17 17:54:47;;;;;;;;;;;22.20;48.60;;;;;;5038224;28;19994;-67
2021/12/17 17:57:13;;;;;;;;;;;22.20;48.70;;;;;;5039674;28;19912;-66
2021/12/17 17:59:39;;;;;;;;;;;22.20;48.70;;;;;;5040557;28;19919;-65
2021/12/17 18:02:05;;;;;;;;;;;22.10;48.80;;;;;;5037708;28;19924;-65
2021/12/17 18:04:31;;;;;;;;;;;22.10;48.80;;;;;;5036321;28;19919;-66